Time;durP1;ratioP1;P1;durP2;ratioP2;P2;SDS_P1;SDS_P2;PMS_P1;PMS_P2;Temp;Humidity;BMP_temperature;BMP_pressure;BME280_temperature;BME280_humidity;BME280_pressure;Samples;Min_cycle;Max_cycle;Signal;HPM_P1;HPM_P2
2022/06/07 00:01:39;;;;;;;17.33;5.60;;;16.30;99.90;;;;;;5108712;27;20511;-68
2022/06/07 00:04:05;;;;;;;19.50;6.40;;;16.20;99.90;;;;;;5119189;27;20411;-69
2022/06/07 00:06:31;;;;;;;17.57;5.77;;;16.20;99.90;;;;;;5106695;27;20979;-68
2022/06/07 00:08:57;;;;;;;20.23;5.80;;;16.20;99.90;;;;;;5112815;27;20463;-67
2022/06/07 00:11:23;;;;;;;17.93;6.00;;;16.20;99.90;;;;;;5118070;27;20425;-67
2022/06/07 00:13:49;;;;;;;10.97;3.97;;;16.10;99.90;;;;;;5126115;27;20197;-69
2022/06/07 00:16:16;;;;;;;11.73;4.53;;;16.10;99.90;;;;;;5095808;28;20188;-69
2022/06/07 00:18:43;;;;;;;13.33;4.60;;;16.10;99.90;;;;;;5126553;27;20671;-69
2022/06/07 00:21:09;;;;;;;18.07;5.87;;;16.10;99.90;;;;;;5088200;28;21033;-68
2022/06/07 00:23:35;;;;;;;15.60;5.23;;;16.10;99.90;;;;;;5109443;27;20496;-67
2022/06/07 00:26:02;;;;;;;15.60;5.30;;;16.10;99.90;;;;;;5108106;27;20468;-69
2022/06/07 00:28:29;;;;;;;13.47;4.73;;;16.10;99.90;;;;;;5114758;27;20469;-69
2022/06/07 00:30:55;;;;;;;25.30;7.90;;;16.10;99.90;;;;;;5112818;27;20801;-69
2022/06/07 00:33:22;;;;;;;14.77;4.90;;;16.10;99.90;;;;;;5111583;27;20843;-69
2022/06/07 00:35:48;;;;;;;13.47;4.57;;;16.20;99.90;;;;;;5107809;27;20425;-68
2022/06/07 00:38:14;;;;;;;13.93;4.90;;;16.10;99.90;;;;;;5122505;27;20913;-68
2022/06/07 00:40:40;;;;;;;17.40;5.90;;;16.30;99.90;;;;;;5117958;27;20249;-66
2022/06/07 00:43:06;;;;;;;20.83;6.77;;;16.10;99.90;;;;;;5113849;27;20183;-69
2022/06/07 00:45:32;;;;;;;12.57;4.67;;;16.10;99.90;;;;;;5111369;27;20210;-69
2022/06/07 00:47:57;;;;;;;11.60;4.20;;;16.10;99.90;;;;;;5108164;27;20190;-69
2022/06/07 00:50:41;;;;;;;9.93;3.47;;;16.10;99.90;;;;;;5098216;27;20192;-69
2022/06/07 00:53:28;;;;;;;17.50;5.90;;;16.10;99.90;;;;;;5122469;27;20195;-68
2022/06/07 00:55:54;;;;;;;15.67;5.67;;;16.10;99.90;;;;;;5114194;27;20799;-67
2022/06/07 00:58:21;;;;;;;18.17;6.87;;;16.10;99.90;;;;;;5098197;28;20434;-67
2022/06/07 01:00:46;;;;;;;15.33;5.27;;;16.10;99.90;;;;;;5117861;27;20445;-68
2022/06/07 01:03:13;;;;;;;20.80;7.57;;;16.10;99.90;;;;;;5115443;27;20525;-69
2022/06/07 01:05:39;;;;;;;14.17;4.90;;;16.10;99.90;;;;;;5108023;27;20208;-70
2022/06/07 01:10:53;;;;;;;22.07;6.77;;;16.10;99.90;;;;;;5115974;27;20911;-69
2022/06/07 01:13:22;;;;;;;13.90;4.73;;;16.20;99.90;;;;;;5108772;27;20517;-68
2022/06/07 01:15:48;;;;;;;13.07;4.77;;;16.10;99.90;;;;;;5109702;27;20915;-66
2022/06/07 01:18:15;;;;;;;12.50;4.33;;;16.00;99.90;;;;;;5100281;27;20883;-71
2022/06/07 01:20:41;;;;;;;12.53;4.20;;;16.10;99.90;;;;;;5122444;27;20455;-74
2022/06/07 01:23:07;;;;;;;12.40;4.40;;;16.00;99.90;;;;;;5119277;27;20430;-67
2022/06/07 01:25:34;;;;;;;15.63;5.33;;;16.00;99.90;;;;;;5108073;27;20689;-68
2022/06/07 01:28:00;;;;;;;17.60;6.27;;;16.00;99.90;;;;;;5111114;27;20782;-67
2022/06/07 01:30:25;;;;;;;13.70;4.77;;;16.10;99.90;;;;;;5117611;27;20448;-69
2022/06/07 01:32:52;;;;;;;15.13;5.23;;;16.10;99.90;;;;;;5114243;27;20179;-68
2022/06/07 01:35:17;;;;;;;15.57;5.43;;;16.00;99.90;;;;;;5108567;27;20207;-69
2022/06/07 01:37:43;;;;;;;13.57;4.97;;;16.10;99.90;;;;;;5127234;27;20407;-69
2022/06/07 01:42:54;;;;;;;15.73;5.57;;;16.10;99.90;;;;;;5108326;28;20199;-68
2022/06/07 01:45:20;;;;;;;14.73;5.43;;;16.10;99.90;;;;;;5118139;27;20461;-69
2022/06/07 01:47:45;;;;;;;12.47;4.83;;;16.10;99.90;;;;;;5104010;28;20274;-69
2022/06/07 01:50:11;;;;;;;16.83;5.97;;;16.20;99.90;;;;;;5094402;28;20512;-68
2022/06/07 01:52:37;;;;;;;16.50;5.90;;;16.20;99.90;;;;;;5107229;28;20719;-67
2022/06/07 01:55:05;;;;;;;20.10;6.87;;;16.20;99.90;;;;;;5108639;28;20184;-67
2022/06/07 01:57:32;;;;;;;25.77;8.17;;;16.20;99.90;;;;;;5109463;28;20422;-69
2022/06/07 01:59:59;;;;;;;20.80;7.70;;;16.20;99.90;;;;;;5115032;28;20449;-69
2022/06/07 02:02:27;;;;;;;15.60;6.40;;;16.20;99.90;;;;;;5106220;28;20926;-67
2022/06/07 02:04:52;;;;;;;23.37;9.43;;;16.20;99.90;;;;;;5110461;28;20457;-69
2022/06/07 02:07:21;;;;;;;14.03;6.23;;;16.20;99.90;;;;;;5111950;28;20765;-69
2022/06/07 02:09:47;;;;;;;16.20;6.03;;;16.20;99.90;;;;;;5084078;28;20199;-68
2022/06/07 02:12:12;;;;;;;15.00;5.80;;;16.20;99.90;;;;;;5105583;28;20949;-69
2022/06/07 02:14:41;;;;;;;17.63;6.23;;;16.20;99.90;;;;;;5117473;28;20185;-69
2022/06/07 02:17:07;;;;;;;21.10;7.07;;;16.20;99.90;;;;;;5120237;28;20188;-69
2022/06/07 02:19:33;;;;;;;21.90;7.90;;;16.20;99.90;;;;;;5096713;28;21198;-69
2022/06/07 02:21:59;;;;;;;18.47;6.73;;;16.20;99.90;;;;;;5089585;28;20521;-68
2022/06/07 02:24:24;;;;;;;14.97;6.00;;;16.20;99.90;;;;;;5113376;28;20649;-69
2022/06/07 02:27:03;;;;;;;17.90;6.67;;;16.20;99.90;;;;;;5108727;28;20204;-69
2022/06/07 02:29:33;;;;;;;10.87;4.40;;;16.30;99.90;;;;;;5097368;28;20905;-69
2022/06/07 02:32:10;;;;;;;12.60;5.43;;;16.30;99.90;;;;;;5114438;28;20426;-69
2022/06/07 02:34:38;;;;;;;17.53;7.27;;;16.30;99.90;;;;;;5098421;28;20422;-69
2022/06/07 02:37:05;;;;;;;20.30;7.97;;;16.30;99.90;;;;;;5099935;28;21682;-69
2022/06/07 02:39:33;;;;;;;19.53;6.03;;;16.30;99.90;;;;;;5100779;28;20518;-69
2022/06/07 02:42:01;;;;;;;20.57;6.23;;;16.30;99.90;;;;;;5116963;28;20418;-69
2022/06/07 02:44:26;;;;;;;22.23;8.10;;;16.30;99.90;;;;;;5119452;28;20428;-68
2022/06/07 02:46:52;;;;;;;12.40;5.53;;;16.20;99.90;;;;;;5098914;28;20466;-68
2022/06/07 02:49:18;;;;;;;14.20;5.57;;;16.20;99.90;;;;;;5097442;28;20287;-69
2022/06/07 02:51:43;;;;;;;17.03;7.00;;;16.20;99.90;;;;;;5094406;28;20192;-69
2022/06/07 02:54:09;;;;;;;23.37;9.73;;;16.10;99.90;;;;;;5113398;27;20181;-69
2022/06/07 02:56:34;;;;;;;15.27;6.53;;;16.10;99.90;;;;;;5101173;27;20192;-69
2022/06/07 02:59:00;;;;;;;15.60;6.03;;;16.00;99.90;;;;;;5100165;28;20841;-69
2022/06/07 03:01:27;;;;;;;12.63;5.13;;;16.00;99.90;;;;;;5100126;27;20723;-68
2022/06/07 03:03:53;;;;;;;16.00;7.13;;;16.00;99.90;;;;;;5124890;27;20204;-68
2022/06/07 03:06:18;;;;;;;16.27;6.63;;;15.90;99.90;;;;;;5119690;27;20464;-69
2022/06/07 03:08:44;;;;;;;125.90;118.40;;;15.90;99.90;;;;;;5115531;27;20190;-69
2022/06/07 03:11:09;;;;;;;23.13;10.63;;;15.90;99.90;;;;;;5125536;27;20211;-69
2022/06/07 03:13:35;;;;;;;76.60;70.03;;;15.90;99.90;;;;;;5120661;27;20640;-69
2022/06/07 03:16:00;;;;;;;21.37;14.13;;;15.90;99.90;;;;;;5105247;27;20649;-69
2022/06/07 03:18:26;;;;;;;241.43;229.73;;;15.80;99.90;;;;;;5116224;27;20185;-68
2022/06/07 03:20:53;;;;;;;271.03;256.33;;;15.80;99.90;;;;;;5090603;28;20220;-68
2022/06/07 03:23:18;;;;;;;252.53;238.30;;;15.80;99.90;;;;;;5123009;27;20195;-69
2022/06/07 03:25:44;;;;;;;181.77;171.30;;;15.80;99.90;;;;;;5115031;27;20461;-68
2022/06/07 03:28:10;;;;;;;55.07;50.20;;;15.80;99.90;;;;;;5121085;27;20192;-69
2022/06/07 03:30:36;;;;;;;260.07;243.73;;;15.80;99.90;;;;;;5109654;27;20201;-68
2022/06/07 03:33:02;;;;;;;267.80;250.50;;;15.80;99.90;;;;;;5120001;27;20410;-69
2022/06/07 03:35:27;;;;;;;278.10;261.37;;;15.80;99.90;;;;;;5121622;27;20664;-70
2022/06/07 03:37:53;;;;;;;52.80;49.33;;;15.80;99.90;;;;;;5128413;27;20410;-69
2022/06/07 03:40:43;;;;;;;20.37;9.90;;;15.70;99.90;;;;;;5122395;27;20208;-70
2022/06/07 03:43:05;;;;;;;191.97;176.57;;;15.70;99.90;;;;;;5126031;27;20175;-70
2022/06/07 03:45:31;;;;;;;314.20;294.03;;;15.80;99.90;;;;;;5135300;27;20481;-70
2022/06/07 03:47:57;;;;;;;299.83;283.30;;;15.80;99.90;;;;;;5131394;27;20444;-70
2022/06/07 03:50:23;;;;;;;19.93;7.80;;;15.70;99.90;;;;;;5137852;27;20454;-69
2022/06/07 03:52:48;;;;;;;20.07;7.80;;;15.70;99.90;;;;;;5123131;27;20191;-70
2022/06/07 03:55:14;;;;;;;19.80;8.80;;;15.70;99.90;;;;;;5112998;27;20179;-70
2022/06/07 03:57:39;;;;;;;23.77;14.00;;;15.70;99.90;;;;;;5100532;27;20177;-70
2022/06/07 04:00:08;;;;;;;22.93;10.17;;;15.70;99.90;;;;;;5094564;27;20204;-70
2022/06/07 04:02:34;;;;;;;19.83;9.87;;;15.70;99.90;;;;;;5108028;27;20577;-69
2022/06/07 04:05:00;;;;;;;24.70;11.13;;;15.70;99.90;;;;;;5116872;27;20788;-67
2022/06/07 04:10:11;;;;;;;17.87;7.93;;;15.80;99.90;;;;;;5113245;27;21002;-70
2022/06/07 04:12:36;;;;;;;16.27;8.40;;;15.80;99.90;;;;;;5119662;27;20422;-69
2022/06/07 04:15:02;;;;;;;200.43;186.20;;;15.80;99.90;;;;;;5123402;27;20437;-69
2022/06/07 04:17:28;;;;;;;229.07;212.57;;;15.70;99.90;;;;;;5122725;27;20206;-67
2022/06/07 04:19:53;;;;;;;25.70;22.80;;;15.80;99.90;;;;;;5104892;27;20465;-69
2022/06/07 04:22:20;;;;;;;121.57;114.07;;;15.80;99.90;;;;;;5108110;28;20654;-73
2022/06/07 04:24:46;;;;;;;331.07;310.33;;;15.60;99.90;;;;;;5117737;27;20654;-73
2022/06/07 04:27:11;;;;;;;250.20;233.17;;;15.80;99.90;;;;;;5085333;28;20492;-75
2022/06/07 04:29:38;;;;;;;17.93;7.83;;;15.80;99.90;;;;;;5118716;27;20213;-73
2022/06/07 04:32:03;;;;;;;25.90;11.83;;;15.80;99.90;;;;;;5113081;27;20209;-73
2022/06/07 04:34:29;;;;;;;17.87;9.93;;;15.80;99.90;;;;;;5091739;27;20426;-72
2022/06/07 04:36:55;;;;;;;21.40;9.97;;;15.70;99.90;;;;;;5115972;27;20188;-73
2022/06/07 04:39:20;;;;;;;17.37;8.27;;;15.90;99.90;;;;;;5094362;28;20204;-71
2022/06/07 04:41:46;;;;;;;17.27;8.07;;;15.90;99.90;;;;;;5102396;28;20189;-72
2022/06/07 04:44:11;;;;;;;23.67;8.43;;;15.90;99.90;;;;;;5114057;27;20190;-73
2022/06/07 04:46:37;;;;;;;226.73;215.70;;;15.90;99.90;;;;;;5122518;27;20215;-73
2022/06/07 04:49:03;;;;;;;273.43;257.63;;;16.00;99.90;;;;;;5111741;27;20213;-73
2022/06/07 04:51:33;;;;;;;179.40;165.27;;;16.00;99.90;;;;;;5119790;27;20192;-73
2022/06/07 04:54:00;;;;;;;224.07;206.63;;;16.10;99.90;;;;;;5114827;27;20430;-72
2022/06/07 04:56:28;;;;;;;196.17;181.23;;;16.00;99.90;;;;;;5084035;28;20436;-74
2022/06/07 04:58:55;;;;;;;15.70;6.67;;;16.00;99.90;;;;;;5103945;27;20460;-71
2022/06/07 05:01:24;;;;;;;16.77;8.00;;;16.10;99.90;;;;;;5121761;27;20425;-74
2022/06/07 05:03:51;;;;;;;13.70;6.03;;;16.10;99.90;;;;;;5110029;27;20434;-71
2022/06/07 05:06:18;;;;;;;23.17;11.30;;;16.20;99.90;;;;;;5107254;27;20997;-71
2022/06/07 05:11:07;;;;;;;306.73;285.37;;;16.40;99.90;;;;;;5073004;27;1249494;-72
2022/06/07 05:13:32;;;;;;;61.53;57.47;;;16.50;99.90;;;;;;5096046;28;20489;-72
2022/06/07 05:15:58;;;;;;;283.20;270.00;;;16.70;99.90;;;;;;5091462;28;20428;-73
2022/06/07 05:18:23;;;;;;;259.30;248.67;;;16.80;99.90;;;;;;5093079;28;20181;-74
2022/06/07 05:20:49;;;;;;;344.77;323.57;;;16.90;99.90;;;;;;5094958;28;20871;-72
2022/06/07 05:23:14;;;;;;;58.47;54.53;;;16.80;99.90;;;;;;5084750;28;20273;-73
2022/06/07 05:25:44;;;;;;;289.10;268.70;;;17.00;99.90;;;;;;5098328;28;20192;-73
2022/06/07 05:28:11;;;;;;;171.60;157.73;;;17.00;99.90;;;;;;5089454;28;20190;-72
2022/06/07 05:30:36;;;;;;;187.93;174.17;;;17.10;99.90;;;;;;5095008;28;20975;-71
2022/06/07 05:33:02;;;;;;;195.70;181.70;;;17.00;99.90;;;;;;5085266;28;20427;-71
2022/06/07 05:35:27;;;;;;;284.73;264.53;;;17.10;99.90;;;;;;5085581;28;20192;-72
2022/06/07 05:37:56;;;;;;;172.83;158.63;;;17.00;99.90;;;;;;5103231;28;20185;-74
2022/06/07 05:40:22;;;;;;;154.77;145.97;;;17.10;99.90;;;;;;5082026;28;20562;-74
2022/06/07 05:42:47;;;;;;;172.33;159.83;;;17.10;99.90;;;;;;5086218;28;20439;-72
2022/06/07 05:45:13;;;;;;;278.27;261.27;;;17.00;99.90;;;;;;5092783;28;20439;-74
2022/06/07 05:47:39;;;;;;;179.83;165.73;;;17.00;99.90;;;;;;5092549;28;20193;-72
2022/06/07 05:50:07;;;;;;;185.13;170.43;;;17.00;99.90;;;;;;5089101;28;20208;-74
2022/06/07 05:52:36;;;;;;;151.93;138.93;;;16.90;99.90;;;;;;5077582;28;20186;-74
2022/06/07 05:55:04;;;;;;;154.73;141.63;;;16.90;99.90;;;;;;5094655;28;20439;-74
2022/06/07 05:57:30;;;;;;;154.53;142.30;;;;;;;;;;5088054;28;21003;-74
2022/06/07 05:59:56;;;;;;;146.77;134.80;;;17.00;99.90;;;;;;5093203;28;20529;-73
2022/06/07 06:02:21;;;;;;;148.37;135.87;;;17.10;99.90;;;;;;5085588;28;20185;-77
2022/06/07 06:04:47;;;;;;;161.27;148.50;;;17.10;99.90;;;;;;5083253;28;20708;-74
2022/06/07 06:07:13;;;;;;;160.13;147.33;;;17.20;99.90;;;;;;5076808;28;20216;-74
2022/06/07 06:12:23;;;;;;;156.77;144.10;;;17.20;99.90;;;;;;5085766;28;20277;-76
2022/06/07 06:14:49;;;;;;;146.33;134.43;;;17.10;99.90;;;;;;5097004;28;20419;-75
2022/06/07 06:17:14;;;;;;;151.13;139.23;;;17.30;99.90;;;;;;5084328;28;20189;-75
2022/06/07 06:19:40;;;;;;;158.47;145.70;;;;;;;;;;5088577;28;20207;-74
2022/06/07 06:22:06;;;;;;;156.57;144.17;;;17.50;99.90;;;;;;5067425;28;20182;-73
2022/06/07 06:24:32;;;;;;;156.73;144.20;;;;;;;;;;5071935;28;20423;-73
2022/06/07 06:26:58;;;;;;;149.80;137.30;;;;;;;;;;5069767;28;20197;-74
2022/06/07 06:29:24;;;;;;;117.97;111.03;;;;;;;;;;5069099;28;21240;-72
2022/06/07 06:31:51;;;;;;;22.13;11.67;;;17.70;99.90;;;;;;5072153;28;20971;-74
2022/06/07 06:34:18;;;;;;;56.27;50.50;;;17.70;99.90;;;;;;5063181;28;20921;-74
2022/06/07 06:36:44;;;;;;;359.10;338.40;;;17.80;99.90;;;;;;5067484;28;20975;-75
2022/06/07 06:39:10;;;;;;;204.10;190.70;;;17.50;99.90;;;;;;5078152;28;20839;-75
2022/06/07 06:41:37;;;;;;;210.23;200.93;;;17.80;99.90;;;;;;5076219;28;20513;-74
2022/06/07 06:44:03;;;;;;;54.23;50.23;;;17.90;99.90;;;;;;5064779;28;20440;-73
2022/06/07 06:46:32;;;;;;;262.97;248.30;;;18.00;99.90;;;;;;5061547;28;20484;-74
2022/06/07 06:48:58;;;;;;;262.87;244.90;;;18.00;99.90;;;;;;5071999;28;20461;-77
2022/06/07 06:51:26;;;;;;;214.70;197.60;;;18.10;99.90;;;;;;5089464;28;20441;-74
2022/06/07 06:53:52;;;;;;;194.67;180.90;;;18.10;99.90;;;;;;5094738;28;20427;-74
2022/06/07 06:56:21;;;;;;;184.33;171.00;;;18.10;99.90;;;;;;5100584;28;20443;-73
2022/06/07 06:58:48;;;;;;;73.63;67.87;;;18.20;99.90;;;;;;5063267;28;20436;-73
2022/06/07 07:01:16;;;;;;;19.20;8.13;;;18.20;99.90;;;;;;5076937;28;20465;-74
2022/06/07 07:03:43;;;;;;;17.17;8.10;;;18.30;99.90;;;;;;5082455;28;20870;-73
2022/06/07 07:06:11;;;;;;;22.87;9.17;;;18.30;99.90;;;;;;5074535;28;20894;-73
2022/06/07 07:08:39;;;;;;;20.57;7.97;;;18.30;99.90;;;;;;5078934;28;20446;-75
2022/06/07 07:11:10;;;;;;;24.83;11.13;;;18.30;99.90;;;;;;5060803;28;20468;-74
2022/06/07 07:13:37;;;;;;;21.03;10.43;;;18.40;99.90;;;;;;5080301;28;20434;-74
2022/06/07 07:16:05;;;;;;;28.20;13.30;;;18.50;99.90;;;;;;5064604;28;20939;-75
2022/06/07 07:18:31;;;;;;;27.30;13.53;;;18.50;99.90;;;;;;5065897;28;20425;-75
2022/06/07 07:20:57;;;;;;;78.20;72.80;;;18.50;99.90;;;;;;5068813;28;20473;-75
2022/06/07 07:23:24;;;;;;;372.27;356.63;;;18.60;99.90;;;;;;5086308;28;20242;-75
2022/06/07 07:25:50;;;;;;;398.07;373.17;;;18.70;99.90;;;;;;5079918;28;20548;-73
2022/06/07 07:28:17;;;;;;;207.30;194.27;;;18.80;99.90;;;;;;5078719;28;20439;-75
2022/06/07 07:30:42;;;;;;;229.37;212.03;;;18.80;99.90;;;;;;5068496;28;20500;-74
2022/06/07 07:33:08;;;;;;;165.27;152.33;;;18.80;99.90;;;;;;5071339;28;20864;-74
2022/06/07 07:35:34;;;;;;;184.17;171.10;;;18.90;99.90;;;;;;5077273;28;20273;-75
2022/06/07 07:38:00;;;;;;;188.50;175.13;;;;;;;;;;5074981;28;20188;-74
2022/06/07 07:40:26;;;;;;;161.93;149.57;;;19.00;99.90;;;;;;5074881;28;20444;-74
2022/06/07 07:42:52;;;;;;;180.40;167.43;;;19.00;99.90;;;;;;5058451;28;20484;-73
2022/06/07 07:45:18;;;;;;;177.57;163.90;;;19.00;99.90;;;;;;5078418;28;20470;-73
2022/06/07 07:47:44;;;;;;;190.73;177.67;;;19.00;99.90;;;;;;5073941;28;20887;-74
2022/06/07 07:50:11;;;;;;;434.73;413.80;;;19.10;99.90;;;;;;5069526;28;20224;-74
2022/06/07 07:52:38;;;;;;;183.90;170.00;;;19.20;99.90;;;;;;5073651;28;20185;-74
2022/06/07 07:55:04;;;;;;;193.93;180.70;;;19.30;99.90;;;;;;5075183;28;20499;-73
2022/06/07 07:57:31;;;;;;;227.60;211.87;;;19.30;99.90;;;;;;5074335;28;20428;-74
2022/06/07 07:59:57;;;;;;;254.13;237.43;;;19.50;99.90;;;;;;5067749;28;20550;-74
2022/06/07 08:02:24;;;;;;;364.27;342.33;;;19.60;99.90;;;;;;5079536;28;20500;-74
2022/06/07 08:04:49;;;;;;;404.23;377.87;;;19.70;99.90;;;;;;5070642;28;20452;-74
2022/06/07 08:07:16;;;;;;;210.73;196.73;;;19.90;99.90;;;;;;5072971;28;20437;-74
2022/06/07 08:09:42;;;;;;;382.63;357.83;;;20.00;99.90;;;;;;5079038;28;20347;-74
2022/06/07 08:12:08;;;;;;;362.63;339.63;;;20.00;99.90;;;;;;5067979;28;20424;-74
2022/06/07 08:14:35;;;;;;;487.53;462.27;;;20.00;99.90;;;;;;5075225;28;20443;-74
2022/06/07 08:17:02;;;;;;;529.37;505.53;;;20.10;99.90;;;;;;5080533;28;20526;-74
2022/06/07 08:19:27;;;;;;;504.47;482.43;;;20.20;99.90;;;;;;5079165;28;20742;-74
2022/06/07 08:21:53;;;;;;;477.07;454.33;;;20.10;99.90;;;;;;5077283;28;20469;-73
2022/06/07 08:24:19;;;;;;;494.63;473.23;;;20.00;99.90;;;;;;5059407;28;20189;-74
2022/06/07 08:26:48;;;;;;;529.73;510.03;;;19.90;99.90;;;;;;5076102;28;20181;-74
2022/06/07 08:29:14;;;;;;;240.77;232.93;;;20.20;99.90;;;;;;5068179;28;20632;-73
2022/06/07 08:31:40;;;;;;;540.20;515.83;;;20.20;99.90;;;;;;5076080;28;20436;-74
2022/06/07 08:39:36;;;;;;;163.90;151.20;;;20.20;99.90;;;;;;5083174;28;20473;-74
2022/06/07 08:42:26;;;;;;;164.20;151.57;;;20.20;99.90;;;;;;5064401;28;20440;-74
2022/06/07 08:45:03;;;;;;;183.83;170.87;;;20.50;99.90;;;;;;5063600;28;20424;-75
2022/06/07 08:47:41;;;;;;;181.53;168.90;;;20.50;99.90;;;;;;5071465;28;20506;-75
2022/06/07 08:50:32;;;;;;;208.57;194.77;;;20.50;99.90;;;;;;5075710;28;20499;-73
2022/06/07 08:53:19;;;;;;;372.53;347.27;;;20.50;99.90;;;;;;5065571;28;21025;-74
2022/06/07 08:55:53;;;;;;;228.97;213.83;;;20.40;99.90;;;;;;5078343;28;20426;-75
2022/06/07 08:58:29;;;;;;;267.93;250.70;;;20.50;99.90;;;;;;5062537;28;20786;-74
2022/06/07 09:00:58;;;;;;;222.70;207.50;;;20.50;99.90;;;;;;5065795;28;20538;-75
2022/06/07 09:03:37;;;;;;;184.27;170.03;;;20.60;99.90;;;;;;5069560;28;20416;-74
2022/06/07 09:06:05;;;;;;;474.03;448.60;;;20.50;99.90;;;;;;5080632;28;20437;-75
2022/06/07 09:08:46;;;;;;;260.93;244.73;;;20.30;99.90;;;;;;5076452;28;20451;-73
2022/06/07 09:14:09;;;;;;;189.20;175.70;;;20.50;99.90;;;;;;5068420;28;20423;-74
2022/06/07 09:16:42;;;;;;;210.90;197.47;;;20.60;99.90;;;;;;5062947;28;21006;-75
2022/06/07 09:19:09;;;;;;;189.97;177.67;;;20.70;99.90;;;;;;5076762;28;20548;-74
2022/06/07 09:21:40;;;;;;;235.20;219.63;;;20.70;99.90;;;;;;5070318;28;20436;-74
2022/06/07 09:24:12;;;;;;;490.33;470.27;;;20.70;99.90;;;;;;5064437;28;20865;-75
2022/06/07 09:26:40;;;;;;;185.93;173.23;;;20.70;99.90;;;;;;5057903;28;20487;-74
2022/06/07 20:38:19;;;;;;;10.90;4.27;;;16.50;99.90;;;;;;5076123;28;21035;-74
2022/06/07 20:40:48;;;;;;;13.90;5.20;;;16.60;99.90;;;;;;5088643;28;20442;-76
2022/06/07 20:43:15;;;;;;;12.67;4.30;;;16.60;99.90;;;;;;5072158;28;20443;-76
2022/06/07 20:45:42;;;;;;;10.77;4.30;;;16.70;99.90;;;;;;5063619;28;20416;-75
2022/06/07 20:48:09;;;;;;;6.80;3.13;;;16.70;99.90;;;;;;5068408;28;20443;-76
2022/06/07 20:50:36;;;;;;;12.10;4.33;;;16.90;99.90;;;;;;5068751;28;20464;-76
2022/06/07 20:53:02;;;;;;;8.97;3.70;;;16.80;99.90;;;;;;5076662;28;20988;-76
2022/06/07 20:55:28;;;;;;;14.73;5.33;;;16.90;99.90;;;;;;5061870;28;20436;-75
2022/06/07 20:57:53;;;;;;;10.87;4.73;;;16.90;99.90;;;;;;5084118;28;20216;-76
2022/06/07 21:00:20;;;;;;;12.80;4.33;;;16.90;99.90;;;;;;5072137;28;20214;-75
2022/06/07 21:02:45;;;;;;;14.00;5.63;;;16.90;99.90;;;;;;5075099;28;20190;-76
2022/06/07 21:05:12;;;;;;;20.70;6.80;;;16.90;99.90;;;;;;5062010;28;20443;-75
2022/06/07 21:07:39;;;;;;;10.57;3.90;;;16.90;99.90;;;;;;5070648;28;20271;-76
2022/06/07 21:10:07;;;;;;;14.90;5.17;;;16.90;99.90;;;;;;5067187;28;20784;-76
2022/06/07 21:12:33;;;;;;;14.40;5.90;;;16.90;99.90;;;;;;5075148;28;20431;-75
2022/06/07 21:14:59;;;;;;;8.83;4.17;;;16.90;99.90;;;;;;5072493;28;20431;-74
2022/06/07 21:17:25;;;;;;;11.53;4.70;;;16.90;99.90;;;;;;5063395;28;20482;-75
2022/06/07 21:19:50;;;;;;;8.53;3.80;;;16.80;99.90;;;;;;5086279;28;20268;-76
2022/06/07 21:22:16;;;;;;;9.57;4.27;;;16.90;99.90;;;;;;5095804;28;20182;-76
2022/06/07 21:24:43;;;;;;;9.90;4.57;;;16.80;99.90;;;;;;5068632;28;20263;-75
2022/06/07 21:27:09;;;;;;;14.60;5.43;;;16.90;99.90;;;;;;5074572;28;20198;-75
2022/06/07 21:29:34;;;;;;;17.80;6.17;;;17.00;99.90;;;;;;5073285;28;20486;-76
2022/06/07 21:32:00;;;;;;;9.40;4.50;;;16.90;99.90;;;;;;5064054;28;20190;-74
2022/06/07 21:34:26;;;;;;;12.57;5.37;;;17.00;99.90;;;;;;5073318;28;20236;-74
2022/06/07 21:36:51;;;;;;;15.90;5.97;;;17.00;99.90;;;;;;5062414;28;20707;-77
2022/06/07 21:39:17;;;;;;;8.53;4.53;;;16.90;99.90;;;;;;5078188;28;20206;-77
2022/06/07 21:41:43;;;;;;;16.37;6.13;;;16.90;99.90;;;;;;5069972;28;20662;-77
2022/06/07 21:44:09;;;;;;;15.60;6.70;;;16.90;99.90;;;;;;5063075;28;20611;-75
2022/06/07 21:46:35;;;;;;;17.07;6.90;;;16.90;99.90;;;;;;5076662;28;20542;-76
2022/06/07 21:49:02;;;;;;;7.20;4.17;;;16.90;99.90;;;;;;5065251;28;20451;-76
2022/06/07 21:51:27;;;;;;;15.00;6.90;;;16.90;99.90;;;;;;5051254;28;20674;-75
2022/06/07 21:53:53;;;;;;;12.80;5.63;;;16.90;99.90;;;;;;5051006;28;20515;-74
2022/06/07 21:56:18;;;;;;;14.20;6.20;;;16.90;99.90;;;;;;5040610;28;20211;-75
2022/06/07 21:58:44;;;;;;;17.73;6.90;;;16.80;99.90;;;;;;5060925;28;20189;-75
2022/06/07 22:01:10;;;;;;;13.50;5.80;;;16.80;99.90;;;;;;5056617;28;20710;-75
2022/06/07 22:03:35;;;;;;;15.50;6.70;;;16.70;99.90;;;;;;5049881;28;20190;-76
2022/06/07 22:06:02;;;;;;;12.87;6.00;;;16.70;99.90;;;;;;5053244;28;20198;-74
2022/06/07 22:08:31;;;;;;;17.57;7.13;;;16.80;99.90;;;;;;5051777;28;20178;-75
2022/06/07 22:10:57;;;;;;;18.60;7.80;;;16.80;99.90;;;;;;5049050;28;20551;-74
2022/06/07 22:13:25;;;;;;;11.37;5.83;;;16.70;99.90;;;;;;5059827;28;20527;-74
2022/06/07 22:15:52;;;;;;;13.70;6.43;;;16.80;99.90;;;;;;5054460;28;20224;-75
2022/06/07 22:18:18;;;;;;;14.23;6.43;;;16.80;99.90;;;;;;5063498;28;20836;-76
2022/06/07 22:20:45;;;;;;;17.13;7.67;;;16.70;99.90;;;;;;5047770;28;20449;-76
2022/06/07 22:23:10;;;;;;;14.27;6.63;;;16.70;99.90;;;;;;5048496;28;20430;-76
2022/06/07 22:25:37;;;;;;;13.17;5.70;;;16.70;99.90;;;;;;5054393;28;20805;-75
2022/06/07 22:28:04;;;;;;;10.47;5.13;;;16.70;99.90;;;;;;5063049;28;20184;-75
2022/06/07 22:30:29;;;;;;;12.17;5.63;;;16.70;99.90;;;;;;5043879;28;20480;-75
2022/06/07 22:32:55;;;;;;;14.77;6.73;;;16.70;99.90;;;;;;5056791;28;20545;-76
2022/06/07 22:35:24;;;;;;;18.60;7.87;;;16.70;99.90;;;;;;5052533;28;20195;-75
2022/06/07 22:37:50;;;;;;;19.10;7.43;;;16.80;99.90;;;;;;5047929;28;20630;-76
2022/06/07 22:40:19;;;;;;;19.83;9.03;;;16.70;99.90;;;;;;5061786;28;20462;-76
2022/06/07 22:42:44;;;;;;;16.33;7.90;;;16.70;99.90;;;;;;5054062;28;20190;-75
2022/06/07 22:45:15;;;;;;;17.33;8.00;;;16.80;99.90;;;;;;5054934;28;20822;-75
2022/06/07 22:47:41;;;;;;;15.27;7.40;;;16.80;99.90;;;;;;5045966;28;20187;-75
2022/06/07 22:50:09;;;;;;;16.23;8.27;;;16.60;99.90;;;;;;5057578;28;20457;-75
2022/06/07 22:52:56;;;;;;;19.03;8.83;;;16.60;99.90;;;;;;5057327;28;20190;-75
2022/06/07 22:55:44;;;;;;;18.43;8.67;;;16.50;99.90;;;;;;5046034;28;20440;-76
2022/06/07 22:58:26;;;;;;;14.53;7.43;;;16.50;99.90;;;;;;5055642;28;20469;-75
2022/06/07 23:00:59;;;;;;;35.00;13.57;;;16.50;99.90;;;;;;5057041;28;20482;-75
2022/06/07 23:03:30;;;;;;;18.90;9.37;;;16.50;99.90;;;;;;5041221;28;20424;-75
2022/06/07 23:05:57;;;;;;;18.07;9.73;;;16.40;99.90;;;;;;5051344;28;20497;-74
2022/06/07 23:08:24;;;;;;;26.27;12.87;;;16.40;99.90;;;;;;5054067;28;20833;-75
2022/06/07 23:10:49;;;;;;;34.97;13.63;;;16.30;99.90;;;;;;5052791;28;20475;-75
2022/06/07 23:13:15;;;;;;;12.00;6.37;;;16.30;99.90;;;;;;5053820;28;20950;-74
2022/06/07 23:18:25;;;;;;;22.10;10.77;;;16.30;99.90;;;;;;5052098;28;20193;-75
2022/06/07 23:20:51;;;;;;;28.13;12.37;;;16.30;99.90;;;;;;5062340;28;20436;-75
2022/06/07 23:23:17;;;;;;;15.47;8.43;;;16.30;99.90;;;;;;5058805;28;20567;-74
2022/06/07 23:25:42;;;;;;;17.90;9.77;;;16.30;99.90;;;;;;5056315;28;20420;-75
2022/06/07 23:28:08;;;;;;;11.90;7.50;;;16.20;99.90;;;;;;5070848;28;20202;-75
2022/06/07 23:30:33;;;;;;;19.77;10.23;;;16.20;99.90;;;;;;5064351;28;20218;-75
2022/06/07 23:32:59;;;;;;;21.33;11.43;;;16.10;99.90;;;;;;5058888;28;20541;-74
2022/06/07 23:35:25;;;;;;;27.03;13.30;;;16.10;99.90;;;;;;5046236;28;20209;-74
2022/06/07 23:37:51;;;;;;;22.40;12.47;;;15.90;99.90;;;;;;5053725;28;20713;-74
2022/06/07 23:40:19;;;;;;;17.07;9.00;;;16.00;99.90;;;;;;5052951;28;20212;-74
2022/06/07 23:42:45;;;;;;;22.60;9.77;;;16.00;99.90;;;;;;5054338;28;20183;-74
2022/06/07 23:45:11;;;;;;;14.43;7.80;;;15.90;99.90;;;;;;5056787;28;20494;-75
2022/06/07 23:47:42;;;;;;;19.00;9.40;;;15.90;99.90;;;;;;5055259;28;20570;-75
2022/06/07 23:50:13;;;;;;;20.63;9.73;;;15.90;99.90;;;;;;5043676;28;20218;-75
2022/06/07 23:52:46;;;;;;;27.10;12.30;;;15.90;99.90;;;;;;5062598;28;20925;-74
2022/06/07 23:55:13;;;;;;;16.70;8.43;;;15.90;99.90;;;;;;5050518;28;20442;-74
2022/06/07 23:57:40;;;;;;;13.63;7.93;;;15.70;99.90;;;;;;5056120;28;20508;-75
